Time;durP1;ratioP1;P1;durP2;ratioP2;P2;SDS_P1;SDS_P2;PMS_P1;PMS_P2;Temp;Humidity;BMP_temperature;BMP_pressure;BME280_temperature;BME280_humidity;BME280_pressure;Samples;Min_cycle;Max_cycle;Signal;HPM_P1;HPM_P2
2023/02/23 00:01:11;;;;;;;;;;;11.20;99.90;;;;;;5013795;28;20394;-71
2023/02/23 00:03:36;;;;;;;;;;;11.30;99.90;;;;;;5005160;28;19924;-71
2023/02/23 00:06:02;;;;;;;;;;;11.20;99.90;;;;;;5004218;28;19934;-70
2023/02/23 00:08:28;;;;;;;;;;;11.20;99.90;;;;;;5009376;28;20397;-70
2023/02/23 00:10:57;;;;;;;;;;;11.10;99.90;;;;;;5011967;28;20389;-69
2023/02/23 00:13:23;;;;;;;;;;;11.20;99.90;;;;;;5015446;28;19909;-71
2023/02/23 00:15:48;;;;;;;;;;;11.20;99.90;;;;;;5013856;28;19941;-71
2023/02/23 00:18:16;;;;;;;;;;;11.40;99.90;;;;;;5016223;28;19909;-70
2023/02/23 00:20:46;;;;;;;;;;;11.40;99.90;;;;;;5015853;28;19909;-71
2023/02/23 00:23:13;;;;;;;;;;;11.40;99.90;;;;;;5014978;28;19984;-69
2023/02/23 00:25:44;;;;;;;;;;;11.30;99.90;;;;;;5010422;28;19929;-68
2023/02/23 00:28:10;;;;;;;;;;;11.30;99.90;;;;;;5016504;28;19909;-67
2023/02/23 00:30:35;;;;;;;;;;;11.20;99.90;;;;;;5003559;28;20375;-71
2023/02/23 00:33:01;;;;;;;;;;;11.10;99.90;;;;;;5002122;28;20387;-71
2023/02/23 00:35:27;;;;;;;;;;;11.20;99.90;;;;;;5013900;28;19917;-69
2023/02/23 00:37:52;;;;;;;;;;;11.10;99.90;;;;;;5011919;28;19918;-68
2023/02/23 00:40:22;;;;;;;;;;;11.00;99.90;;;;;;5015251;28;19971;-71
2023/02/23 00:42:50;;;;;;;;;;;10.90;99.90;;;;;;5011728;28;19925;-71
2023/02/23 00:45:16;;;;;;;;;;;10.90;99.90;;;;;;5006679;28;20334;-70
2023/02/23 00:47:42;;;;;;;;;;;11.00;99.90;;;;;;5016073;28;19910;-70
2023/02/23 00:50:14;;;;;;;;;;;10.90;99.90;;;;;;5014519;28;19945;-71
2023/02/23 00:52:40;;;;;;;;;;;10.80;99.90;;;;;;5009444;28;20059;-70
2023/02/23 00:55:13;;;;;;;;;;;10.80;99.90;;;;;;5011188;28;20225;-70
2023/02/23 00:57:38;;;;;;;;;;;10.90;99.90;;;;;;5011418;28;20425;-70
2023/02/23 01:00:20;;;;;;;;;;;11.00;99.90;;;;;;5004201;28;19968;-71
2023/02/23 01:02:47;;;;;;;;;;;11.00;99.90;;;;;;5014082;28;20165;-69
2023/02/23 01:05:12;;;;;;;;;;;10.90;99.90;;;;;;5015101;28;20295;-70
2023/02/23 01:07:38;;;;;;;;;;;10.80;99.90;;;;;;5012580;28;19909;-70
2023/02/23 01:10:18;;;;;;;;;;;10.80;99.90;;;;;;5014958;28;19909;-71
2023/02/23 01:12:47;;;;;;;;;;;10.90;99.90;;;;;;5011952;28;20560;-73
2023/02/23 01:15:13;;;;;;;;;;;10.90;99.90;;;;;;5010227;28;19945;-71
2023/02/23 01:17:39;;;;;;;;;;;11.00;99.90;;;;;;5003916;28;19953;-70
2023/02/23 01:20:18;;;;;;;;;;;11.00;99.90;;;;;;5008533;28;20474;-74
2023/02/23 01:22:44;;;;;;;;;;;11.10;99.90;;;;;;5001957;28;19913;-70
2023/02/23 01:25:11;;;;;;;;;;;11.10;99.90;;;;;;5008102;28;20370;-74
2023/02/23 01:27:37;;;;;;;;;;;11.00;99.90;;;;;;5011352;28;19949;-70
2023/02/23 01:30:03;;;;;;;;;;;10.90;99.90;;;;;;5014544;28;19972;-70
2023/02/23 01:32:29;;;;;;;;;;;11.00;99.90;;;;;;5014344;28;20394;-70
2023/02/23 01:34:54;;;;;;;;;;;11.10;99.90;;;;;;5009986;28;19913;-72
2023/02/23 01:37:20;;;;;;;;;;;11.20;99.90;;;;;;4997739;28;19956;-71
2023/02/23 01:39:46;;;;;;;;;;;11.10;99.90;;;;;;4994790;28;19955;-71
2023/02/23 01:42:12;;;;;;;;;;;11.10;99.90;;;;;;4995393;28;19914;-71
2023/02/23 01:44:38;;;;;;;;;;;11.10;99.90;;;;;;4996936;28;19914;-73
2023/02/23 01:47:04;;;;;;;;;;;11.00;99.90;;;;;;4995794;28;19972;-74
2023/02/23 01:49:33;;;;;;;;;;;11.10;99.90;;;;;;4998142;28;19964;-69
2023/02/23 01:52:05;;;;;;;;;;;11.10;99.90;;;;;;4996361;28;19925;-70
2023/02/23 01:54:32;;;;;;;;;;;11.10;99.90;;;;;;4995259;28;19921;-71
2023/02/23 01:57:00;;;;;;;;;;;11.10;99.90;;;;;;4998606;28;20268;-70
2023/02/23 01:59:28;;;;;;;;;;;11.10;99.90;;;;;;4990071;28;19918;-73
2023/02/23 02:01:55;;;;;;;;;;;11.10;99.90;;;;;;4990071;28;19925;-71
2023/02/23 02:04:21;;;;;;;;;;;11.00;99.90;;;;;;4999034;28;20552;-74
2023/02/23 02:06:52;;;;;;;;;;;11.00;99.90;;;;;;4986688;28;19928;-71
2023/02/23 02:09:18;;;;;;;;;;;11.00;99.90;;;;;;4991626;28;19980;-73
2023/02/23 02:11:45;;;;;;;;;;;10.90;99.90;;;;;;4996497;28;20311;-70
2023/02/23 02:14:12;;;;;;;;;;;10.90;99.90;;;;;;4993891;28;20335;-70
2023/02/23 02:16:41;;;;;;;;;;;10.90;99.90;;;;;;4997433;28;20302;-73
2023/02/23 02:19:17;;;;;;;;;;;11.00;99.90;;;;;;4997531;28;19917;-69
2023/02/23 02:22:03;;;;;;;;;;;11.00;99.90;;;;;;5004627;28;20441;-70
2023/02/23 02:24:38;;;;;;;;;;;10.90;99.90;;;;;;4995163;28;19921;-73
2023/02/23 02:27:04;;;;;;;;;;;10.80;99.90;;;;;;5004469;28;19956;-70
2023/02/23 02:29:38;;;;;;;;;;;10.80;99.90;;;;;;5012571;28;19971;-70
2023/02/23 02:32:24;;;;;;;;;;;10.80;99.90;;;;;;5012324;28;19925;-73
2023/02/23 02:35:08;;;;;;;;;;;10.80;99.90;;;;;;5012261;28;19914;-72
2023/02/23 02:37:49;;;;;;;;;;;10.90;99.90;;;;;;5011782;28;20577;-72
2023/02/23 02:40:38;;;;;;;;;;;10.80;99.90;;;;;;5010585;28;20346;-69
2023/02/23 02:43:14;;;;;;;;;;;11.00;99.90;;;;;;4979810;28;19972;-71
2023/02/23 02:45:59;;;;;;;;;;;10.90;99.90;;;;;;5011411;28;20300;-70
2023/02/23 02:48:38;;;;;;;;;;;10.90;99.90;;;;;;5009862;28;19920;-71
2023/02/23 02:51:16;;;;;;;;;;;10.90;99.90;;;;;;5012836;28;19979;-71
2023/02/23 02:53:47;;;;;;;;;;;11.00;99.90;;;;;;5011761;28;19956;-71
2023/02/23 02:56:18;;;;;;;;;;;11.00;99.90;;;;;;5010755;28;19945;-70
2023/02/23 02:58:45;;;;;;;;;;;11.10;99.90;;;;;;5004899;28;19976;-72
2023/02/23 04:17:43;;;;;;;;;;;10.70;99.90;;;;;;4996971;28;19914;-70
2023/02/23 04:20:11;;;;;;;;;;;10.90;99.90;;;;;;5000085;28;19924;-66
2023/02/23 04:22:36;;;;;;;;;;;10.90;99.90;;;;;;4996744;28;19917;-70
2023/02/23 04:25:04;;;;;;;;;;;10.80;99.90;;;;;;4996724;28;19921;-68
2023/02/23 04:27:32;;;;;;;;;;;10.90;99.90;;;;;;4999892;28;20238;-70
2023/02/23 04:29:58;;;;;;;;;;;11.00;99.90;;;;;;5008979;28;20302;-71
2023/02/23 04:32:23;;;;;;;;;;;10.90;99.90;;;;;;5014160;28;20005;-71
2023/02/23 04:34:49;;;;;;;;;;;10.90;99.90;;;;;;5015496;28;19996;-70
2023/02/23 04:37:15;;;;;;;;;;;10.80;99.90;;;;;;5013410;28;20016;-70
2023/02/23 04:39:47;;;;;;;;;;;10.80;99.90;;;;;;5015233;28;19924;-71
2023/02/23 04:42:13;;;;;;;;;;;10.70;99.90;;;;;;5015022;28;19910;-71
2023/02/23 04:44:38;;;;;;;;;;;10.80;99.90;;;;;;5015663;28;19910;-70
2023/02/23 04:47:04;;;;;;;;;;;10.90;99.90;;;;;;5014970;28;20460;-71
2023/02/23 04:49:30;;;;;;;;;;;11.10;99.90;;;;;;5010424;28;20367;-69
2023/02/23 04:51:56;;;;;;;;;;;11.00;99.90;;;;;;5014909;28;19909;-70
2023/02/23 04:54:21;;;;;;;;;;;11.00;99.90;;;;;;5015210;28;19909;-70
2023/02/23 04:56:47;;;;;;;;;;;11.10;99.90;;;;;;5014465;28;19921;-70
2023/02/23 04:59:12;;;;;;;;;;;11.00;99.90;;;;;;5014864;28;20004;-70
2023/02/23 05:01:38;;;;;;;;;;;11.00;99.90;;;;;;4998872;28;20008;-68
2023/02/23 05:04:04;;;;;;;;;;;11.00;99.90;;;;;;4996168;28;19913;-71
2023/02/23 05:06:30;;;;;;;;;;;10.90;99.90;;;;;;4993854;28;19965;-70
2023/02/23 05:08:56;;;;;;;;;;;10.90;99.90;;;;;;4995675;28;20387;-72
2023/02/23 05:11:22;;;;;;;;;;;10.90;99.90;;;;;;5011232;28;19945;-69
2023/02/23 05:13:47;;;;;;;;;;;10.90;99.90;;;;;;5002333;28;19960;-70
2023/02/23 05:16:13;;;;;;;;;;;10.80;99.90;;;;;;4997529;28;19932;-73
2023/02/23 05:18:38;;;;;;;;;;;10.90;99.90;;;;;;4996246;28;19920;-71
2023/02/23 05:21:05;;;;;;;;;;;11.00;99.90;;;;;;5001595;28;19961;-70
2023/02/23 05:23:33;;;;;;;;;;;10.90;99.90;;;;;;4994977;28;21954;-71
2023/02/23 05:26:00;;;;;;;;;;;10.90;99.90;;;;;;4995459;28;19917;-72
2023/02/23 05:28:25;;;;;;;;;;;10.90;99.90;;;;;;4995898;28;19920;-71
2023/02/23 05:30:51;;;;;;;;;;;10.80;99.90;;;;;;4997301;28;20016;-71
2023/02/23 05:33:17;;;;;;;;;;;10.80;99.90;;;;;;4997445;28;20575;-70
2023/02/23 05:35:42;;;;;;;;;;;10.80;99.90;;;;;;4996502;28;19926;-74
2023/02/23 05:38:08;;;;;;;;;;;10.90;99.90;;;;;;4995721;28;19917;-69
2023/02/23 05:40:34;;;;;;;;;;;11.10;99.90;;;;;;5002048;28;19953;-71
2023/02/23 05:43:00;;;;;;;;;;;11.00;99.90;;;;;;4995127;28;19937;-70
2023/02/23 05:45:26;;;;;;;;;;;11.00;99.90;;;;;;4997683;28;19971;-72
2023/02/23 05:47:51;;;;;;;;;;;11.00;99.90;;;;;;5000415;28;19925;-70
2023/02/23 05:50:17;;;;;;;;;;;10.90;99.90;;;;;;5004549;28;19914;-70
2023/02/23 05:52:43;;;;;;;;;;;10.80;99.90;;;;;;4994974;28;19925;-70
2023/02/23 05:55:10;;;;;;;;;;;10.90;99.90;;;;;;5005356;28;20864;-71
2023/02/23 05:57:36;;;;;;;;;;;10.90;99.90;;;;;;4995922;28;20059;-70
2023/02/23 06:00:03;;;;;;;;;;;10.90;99.90;;;;;;4993371;28;20016;-71
2023/02/23 06:02:28;;;;;;;;;;;10.90;99.90;;;;;;4997019;28;20060;-74
2023/02/23 06:04:54;;;;;;;;;;;10.90;99.90;;;;;;5001326;28;20421;-70
2023/02/23 06:07:20;;;;;;;;;;;10.90;99.90;;;;;;4993983;28;19980;-72
2023/02/23 06:09:45;;;;;;;;;;;10.90;99.90;;;;;;4999833;28;19918;-71
2023/02/23 06:12:11;;;;;;;;;;;10.80;99.90;;;;;;4999296;28;19914;-71
2023/02/23 06:14:37;;;;;;;;;;;10.80;99.90;;;;;;4995174;28;19921;-71
2023/02/23 06:17:02;;;;;;;;;;;10.80;99.90;;;;;;4996898;28;19925;-72
2023/02/23 06:19:28;;;;;;;;;;;10.80;99.90;;;;;;4993277;28;19914;-70
2023/02/23 06:21:54;;;;;;;;;;;10.80;99.90;;;;;;5002205;28;19924;-72
2023/02/23 06:24:20;;;;;;;;;;;10.90;99.90;;;;;;4994211;28;19969;-69
2023/02/23 06:26:46;;;;;;;;;;;10.90;99.90;;;;;;4996742;28;19914;-71
2023/02/23 06:29:11;;;;;;;;;;;10.90;99.90;;;;;;5008280;28;19919;-71
2023/02/23 06:31:37;;;;;;;;;;;10.80;99.90;;;;;;5012574;28;19948;-70
2023/02/23 06:34:03;;;;;;;;;;;10.70;99.90;;;;;;5012733;28;19909;-70
2023/02/23 06:36:29;;;;;;;;;;;10.60;99.90;;;;;;5011578;28;20370;-70
2023/02/23 06:38:55;;;;;;;;;;;10.50;99.90;;;;;;5012311;28;19952;-71
2023/02/23 06:41:21;;;;;;;;;;;10.50;99.90;;;;;;5012169;28;19989;-69
2023/02/23 06:43:47;;;;;;;;;;;10.50;99.90;;;;;;5012670;28;19957;-71
2023/02/23 06:46:12;;;;;;;;;;;10.50;99.90;;;;;;5012310;28;19941;-70
2023/02/23 06:48:40;;;;;;;;;;;10.50;99.90;;;;;;5008101;28;20004;-70
2023/02/23 06:51:05;;;;;;;;;;;10.50;99.90;;;;;;5012611;28;19910;-71
2023/02/23 06:53:32;;;;;;;;;;;10.60;99.90;;;;;;4994397;28;19925;-71
2023/02/23 06:55:58;;;;;;;;;;;10.80;99.90;;;;;;5001608;28;19925;-71
2023/02/23 06:58:24;;;;;;;;;;;10.80;99.90;;;;;;4995358;28;19913;-70
2023/02/23 07:00:49;;;;;;;;;;;10.90;99.90;;;;;;4993763;28;19920;-74
2023/02/23 07:03:15;;;;;;;;;;;11.00;99.90;;;;;;5000145;28;19921;-70
2023/02/23 07:05:42;;;;;;;;;;;11.00;99.90;;;;;;5005294;28;19948;-70
2023/02/23 07:08:07;;;;;;;;;;;11.00;99.90;;;;;;5008802;28;19925;-70
2023/02/23 07:10:33;;;;;;;;;;;10.90;99.90;;;;;;5004127;28;19922;-71
2023/02/23 07:12:59;;;;;;;;;;;11.00;99.90;;;;;;5006959;28;19940;-69
2023/02/23 07:15:25;;;;;;;;;;;11.00;99.90;;;;;;5010658;28;19914;-70
2023/02/23 07:17:51;;;;;;;;;;;11.00;99.90;;;;;;5004041;28;19921;-72
2023/02/23 07:20:18;;;;;;;;;;;11.20;99.90;;;;;;5004144;28;19921;-71
2023/02/23 07:22:44;;;;;;;;;;;11.20;99.90;;;;;;5010767;28;19914;-69
2023/02/23 07:25:10;;;;;;;;;;;11.30;99.90;;;;;;5010599;28;20303;-71
2023/02/23 07:27:35;;;;;;;;;;;11.30;99.90;;;;;;5006075;28;19955;-70
2023/02/23 07:30:04;;;;;;;;;;;11.30;99.90;;;;;;5000995;28;19921;-71
2023/02/23 07:32:32;;;;;;;;;;;11.30;99.90;;;;;;5008213;28;20004;-70
2023/02/23 07:34:58;;;;;;;;;;;11.40;99.90;;;;;;5005049;28;19937;-70
2023/02/23 07:37:23;;;;;;;;;;;11.40;99.90;;;;;;5000450;28;19918;-71
2023/02/23 07:39:49;;;;;;;;;;;11.40;99.90;;;;;;5008133;28;20327;-71
2023/02/23 07:42:14;;;;;;;;;;;11.30;99.90;;;;;;5006968;28;20004;-70
2023/02/23 07:44:43;;;;;;;;;;;11.10;99.90;;;;;;5012037;28;19914;-71
2023/02/23 07:47:09;;;;;;;;;;;11.00;99.90;;;;;;5015871;28;19972;-70
2023/02/23 07:49:35;;;;;;;;;;;11.00;99.90;;;;;;5011606;28;19928;-69
2023/02/23 07:52:01;;;;;;;;;;;10.90;99.90;;;;;;5009947;28;20538;-71
2023/02/23 07:54:26;;;;;;;;;;;10.90;99.90;;;;;;5008876;28;19922;-73
2023/02/23 07:56:52;;;;;;;;;;;10.90;99.90;;;;;;5007044;28;19961;-70
2023/02/23 07:59:18;;;;;;;;;;;11.00;99.90;;;;;;5002015;28;20406;-70
2023/02/23 08:01:44;;;;;;;;;;;11.10;99.90;;;;;;5005146;28;19921;-69
2023/02/23 08:04:09;;;;;;;;;;;11.20;99.90;;;;;;5004322;28;19921;-69
2023/02/23 08:06:35;;;;;;;;;;;11.20;99.90;;;;;;5008317;28;20418;-71
2023/02/23 08:09:01;;;;;;;;;;;11.30;99.90;;;;;;5015017;28;20305;-71
2023/02/23 08:11:30;;;;;;;;;;;11.30;99.90;;;;;;5013083;28;19917;-70
2023/02/23 08:13:58;;;;;;;;;;;11.20;99.90;;;;;;5006389;28;20016;-70
2023/02/23 08:16:26;;;;;;;;;;;11.30;99.90;;;;;;5007979;28;19936;-70
2023/02/23 08:18:51;;;;;;;;;;;11.30;99.90;;;;;;4994498;28;19980;-68
2023/02/23 08:21:17;;;;;;;;;;;11.50;99.90;;;;;;4996185;28;20298;-71
2023/02/23 08:23:43;;;;;;;;;;;11.60;99.90;;;;;;5008918;28;20375;-70
2023/02/23 08:26:10;;;;;;;;;;;11.30;99.90;;;;;;5011515;28;19917;-71
2023/02/23 08:28:36;;;;;;;;;;;11.30;99.90;;;;;;5011319;28;20437;-71
2023/02/23 08:31:01;;;;;;;;;;;11.40;99.90;;;;;;5013895;28;19914;-74
2023/02/23 08:33:27;;;;;;;;;;;11.50;99.90;;;;;;5011241;28;19945;-70
2023/02/23 08:35:53;;;;;;;;;;;11.50;99.90;;;;;;5014292;28;19979;-70
2023/02/23 08:38:19;;;;;;;;;;;11.60;99.90;;;;;;5012164;28;19913;-71
2023/02/23 08:40:45;;;;;;;;;;;11.70;99.90;;;;;;5010131;28;20341;-69
2023/02/23 08:43:10;;;;;;;;;;;11.80;99.90;;;;;;5013906;28;20296;-68
2023/02/23 08:45:38;;;;;;;;;;;11.80;99.90;;;;;;5013067;28;20608;-69
2023/02/23 08:48:04;;;;;;;;;;;11.80;99.90;;;;;;5015086;28;20379;-69
2023/02/23 08:50:29;;;;;;;;;;;11.80;99.90;;;;;;5012629;28;19928;-68
2023/02/23 08:52:55;;;;;;;;;;;11.90;99.90;;;;;;5012470;28;20363;-68
2023/02/23 08:55:22;;;;;;;;;;;11.90;99.90;;;;;;5013072;28;20311;-69
2023/02/23 08:57:48;;;;;;;;;;;12.00;99.90;;;;;;5014620;28;19914;-68
2023/02/23 09:00:15;;;;;;;;;;;12.10;99.90;;;;;;5013630;28;19909;-68
2023/02/23 09:02:42;;;;;;;;;;;12.10;99.90;;;;;;5008499;28;19917;-69
2023/02/23 09:05:08;;;;;;;;;;;12.10;99.90;;;;;;5003669;28;20026;-68
2023/02/23 09:07:33;;;;;;;;;;;12.10;99.90;;;;;;5004296;28;19924;-68
2023/02/23 09:09:59;;;;;;;;;;;12.20;99.90;;;;;;5011878;28;19914;-69
2023/02/23 09:12:25;;;;;;;;;;;12.20;99.90;;;;;;5011761;28;19948;-69
2023/02/23 09:14:52;;;;;;;;;;;12.30;99.90;;;;;;5011766;28;19925;-69
2023/02/23 09:17:18;;;;;;;;;;;12.30;99.90;;;;;;5013415;28;19959;-68
2023/02/23 09:19:44;;;;;;;;;;;12.20;99.90;;;;;;5010210;28;19957;-70
2023/02/23 09:22:10;;;;;;;;;;;12.00;99.90;;;;;;5011406;28;19953;-68
2023/02/23 09:24:37;;;;;;;;;;;11.90;99.90;;;;;;5013633;28;20272;-69
2023/02/23 09:27:03;;;;;;;;;;;11.80;99.90;;;;;;5013855;28;19910;-68
2023/02/23 09:29:29;;;;;;;;;;;11.80;99.90;;;;;;5013027;28;19928;-69
2023/02/23 09:31:56;;;;;;;;;;;11.90;99.90;;;;;;5012721;28;19909;-68
2023/02/23 09:34:23;;;;;;;;;;;12.00;99.90;;;;;;5012802;28;20535;-69
2023/02/23 09:36:48;;;;;;;;;;;12.00;99.90;;;;;;5009889;28;19980;-69
2023/02/23 09:39:14;;;;;;;;;;;12.10;99.90;;;;;;5024126;28;20551;-69
2023/02/23 09:42:02;;;;;;;;;;;12.00;99.90;;;;;;5025002;28;19920;-68
2023/02/23 09:44:45;;;;;;;;;;;11.90;99.90;;;;;;5013022;28;19914;-69
2023/02/23 09:47:39;;;;;;;;;;;11.70;99.90;;;;;;5011406;28;20012;-68
2023/02/23 09:50:12;;;;;;;;;;;11.60;99.90;;;;;;5010553;28;20394;-69
2023/02/23 09:52:41;;;;;;;;;;;11.80;99.90;;;;;;5010573;28;20020;-68
2023/02/23 09:55:09;;;;;;;;;;;11.80;99.90;;;;;;5012536;28;19921;-69
2023/02/23 09:57:39;;;;;;;;;;;11.80;99.90;;;;;;5006592;28;19914;-69
2023/02/23 10:00:16;;;;;;;;;;;12.10;99.90;;;;;;5011537;28;19914;-68
2023/02/23 10:03:03;;;;;;;;;;;12.40;99.90;;;;;;5013416;28;19910;-68
2023/02/23 10:05:33;;;;;;;;;;;12.60;99.90;;;;;;5010792;28;19914;-69
2023/02/23 10:08:06;;;;;;;;;;;12.70;99.90;;;;;;5012235;28;19956;-72
2023/02/23 10:10:54;;;;;;;;;;;12.70;99.90;;;;;;5012101;28;19960;-68
2023/02/23 10:13:26;;;;;;;;;;;12.70;99.90;;;;;;5006675;28;19971;-69
2023/02/23 10:16:01;;;;;;;;;;;12.60;99.90;;;;;;5010763;28;20008;-69
2023/02/23 10:18:34;;;;;;;;;;;12.60;99.90;;;;;;5010732;28;19922;-69
2023/02/23 10:21:09;;;;;;;;;;;12.60;99.90;;;;;;5006417;28;19917;-69
2023/02/23 10:23:58;;;;;;;;;;;12.60;99.90;;;;;;5009174;28;19925;-69
2023/02/23 10:26:25;;;;;;;;;;;12.60;99.90;;;;;;5011451;28;20008;-68
2023/02/23 10:28:53;;;;;;;;;;;12.60;99.90;;;;;;5012183;28;20387;-69
2023/02/23 10:31:28;;;;;;;;;;;12.60;99.90;;;;;;5021884;28;19976;-69
2023/02/23 10:33:58;;;;;;;;;;;12.60;99.90;;;;;;5011523;28;19914;-69
2023/02/23 10:36:27;;;;;;;;;;;12.60;99.90;;;;;;5012164;28;20322;-69
2023/02/23 10:38:53;;;;;;;;;;;12.70;99.90;;;;;;5012784;28;19979;-69
2023/02/23 10:41:18;;;;;;;;;;;12.70;99.90;;;;;;5012573;28;19917;-69
2023/02/23 10:43:44;;;;;;;;;;;12.90;99.90;;;;;;5012020;28;20529;-69
2023/02/23 10:46:16;;;;;;;;;;;13.00;99.90;;;;;;5005625;28;20379;-68
2023/02/23 10:48:42;;;;;;;;;;;13.10;99.90;;;;;;5012692;28;19909;-69
2023/02/23 10:51:16;;;;;;;;;;;13.00;99.90;;;;;;5012398;28;19917;-69
2023/02/23 10:53:42;;;;;;;;;;;13.00;99.90;;;;;;5012995;28;19909;-69
2023/02/23 10:56:09;;;;;;;;;;;13.00;99.90;;;;;;5011291;28;19975;-68
2023/02/23 10:58:39;;;;;;;;;;;12.90;99.90;;;;;;5011108;28;19909;-68
2023/02/23 11:01:05;;;;;;;;;;;12.70;99.90;;;;;;5011213;28;19917;-68
2023/02/23 11:03:41;;;;;;;;;;;12.70;99.90;;;;;;5011108;28;20288;-69
2023/02/23 11:06:25;;;;;;;;;;;12.70;99.90;;;;;;5004395;28;19918;-69
2023/02/23 11:08:51;;;;;;;;;;;12.70;99.90;;;;;;5002766;28;19971;-71
2023/02/23 11:11:24;;;;;;;;;;;12.60;99.90;;;;;;5008840;28;20288;-69
2023/02/23 11:13:50;;;;;;;;;;;12.60;99.90;;;;;;5008732;28;19976;-68
2023/02/23 11:16:18;;;;;;;;;;;12.60;99.90;;;;;;5003506;28;21734;-70
2023/02/23 11:18:53;;;;;;;;;;;12.70;99.90;;;;;;5002930;28;19929;-69
2023/02/23 11:21:40;;;;;;;;;;;12.70;99.90;;;;;;5014661;28;20371;-70
2023/02/23 11:24:16;;;;;;;;;;;12.70;99.90;;;;;;5018990;28;20517;-66
2023/02/23 11:26:42;;;;;;;;;;;12.60;99.90;;;;;;5010295;28;20363;-66
2023/02/23 11:29:14;;;;;;;;;;;12.60;99.90;;;;;;5009622;28;20369;-67
2023/02/23 11:31:40;;;;;;;;;;;12.60;99.90;;;;;;5012176;28;19914;-68
2023/02/23 11:34:06;;;;;;;;;;;12.60;99.90;;;;;;5012510;28;20004;-67
2023/02/23 11:36:33;;;;;;;;;;;12.50;99.90;;;;;;5012913;28;20515;-67
2023/02/23 11:39:15;;;;;;;;;;;12.50;99.90;;;;;;5011166;28;19944;-67
2023/02/23 11:41:41;;;;;;;;;;;12.60;99.90;;;;;;5009492;28;19914;-69
2023/02/23 11:44:17;;;;;;;;;;;12.60;99.90;;;;;;5016620;28;19977;-70
2023/02/23 11:46:44;;;;;;;;;;;12.60;99.90;;;;;;5007971;28;20389;-69
2023/02/23 11:49:16;;;;;;;;;;;12.70;99.90;;;;;;5013550;28;19920;-69
2023/02/23 11:51:47;;;;;;;;;;;12.70;99.90;;;;;;5015104;28;19914;-69
2023/02/23 11:54:25;;;;;;;;;;;12.80;99.90;;;;;;5015593;28;19914;-69
2023/02/23 11:56:54;;;;;;;;;;;12.80;99.90;;;;;;5014610;28;20016;-69
2023/02/23 11:59:39;;;;;;;;;;;12.90;99.90;;;;;;5015690;28;19910;-69
2023/02/23 12:02:18;;;;;;;;;;;12.90;99.90;;;;;;5013651;28;20020;-70
2023/02/23 12:04:46;;;;;;;;;;;12.90;99.90;;;;;;5014824;28;19920;-69
2023/02/23 12:07:33;;;;;;;;;;;12.80;99.90;;;;;;5015442;28;20017;-70
2023/02/23 12:10:22;;;;;;;;;;;13.10;99.90;;;;;;5014621;28;19991;-68
2023/02/23 12:12:54;;;;;;;;;;;13.10;99.90;;;;;;5003900;28;20393;-69
2023/02/23 12:15:26;;;;;;;;;;;13.20;99.90;;;;;;5014356;28;19955;-69
2023/02/23 12:18:01;;;;;;;;;;;13.20;99.90;;;;;;5012897;28;19933;-70
2023/02/23 12:20:29;;;;;;;;;;;13.10;99.90;;;;;;5010893;28;19932;-69
2023/02/23 12:23:01;;;;;;;;;;;13.00;99.90;;;;;;5014128;28;19980;-69
2023/02/23 12:25:27;;;;;;;;;;;12.90;99.90;;;;;;5013099;28;20102;-70
2023/02/23 12:27:52;;;;;;;;;;;12.90;99.90;;;;;;5012312;28;20350;-69
2023/02/23 12:30:24;;;;;;;;;;;12.80;99.90;;;;;;5014875;28;19917;-69
2023/02/23 12:32:50;;;;;;;;;;;12.80;99.90;;;;;;5014464;28;19916;-74
2023/02/23 12:35:19;;;;;;;;;;;12.80;99.90;;;;;;5013548;28;20282;-69
2023/02/23 12:37:51;;;;;;;;;;;12.70;99.90;;;;;;5012126;28;19918;-74
2023/02/23 12:40:28;;;;;;;;;;;12.80;99.90;;;;;;5012659;28;19922;-69
2023/02/23 12:42:57;;;;;;;;;;;12.80;99.90;;;;;;5013864;28;19964;-69
2023/02/23 12:45:40;;;;;;;;;;;12.80;99.90;;;;;;5013397;28;19992;-69
2023/02/23 12:48:06;;;;;;;;;;;12.70;99.90;;;;;;5012831;28;20295;-69
2023/02/23 12:50:51;;;;;;;;;;;12.60;99.90;;;;;;5014362;28;19940;-69
2023/02/23 12:53:35;;;;;;;;;;;12.60;99.90;;;;;;5014501;28;19920;-69
2023/02/23 12:56:03;;;;;;;;;;;12.70;99.90;;;;;;5013207;28;20404;-69
2023/02/23 12:58:28;;;;;;;;;;;12.60;99.90;;;;;;5013286;28;19956;-69
2023/02/23 13:01:03;;;;;;;;;;;12.60;99.90;;;;;;5011820;28;19914;-69
2023/02/23 13:03:49;;;;;;;;;;;12.60;99.90;;;;;;5012292;28;20437;-69
2023/02/23 13:06:38;;;;;;;;;;;12.60;99.90;;;;;;4994043;28;19914;-69
2023/02/23 13:09:04;;;;;;;;;;;12.60;99.90;;;;;;4995028;28;19914;-69
2023/02/23 13:11:30;;;;;;;;;;;12.70;99.90;;;;;;5004121;28;19921;-69
2023/02/23 13:13:56;;;;;;;;;;;12.80;99.90;;;;;;5009273;28;19959;-69
2023/02/23 13:16:21;;;;;;;;;;;13.00;99.90;;;;;;5011105;28;19917;-68
2023/02/23 13:18:56;;;;;;;;;;;12.80;99.90;;;;;;5010754;28;19929;-69
2023/02/23 13:21:24;;;;;;;;;;;12.70;99.90;;;;;;5009262;28;19914;-68
2023/02/23 13:23:59;;;;;;;;;;;12.80;99.90;;;;;;5012475;28;20282;-68
2023/02/23 13:26:37;;;;;;;;;;;12.70;99.90;;;;;;5013085;28;19985;-69
2023/02/23 13:29:06;;;;;;;;;;;12.60;99.90;;;;;;5007922;28;19914;-69
2023/02/23 13:31:34;;;;;;;;;;;12.50;99.90;;;;;;5012353;28;19921;-69
2023/02/23 13:34:00;;;;;;;;;;;12.40;99.90;;;;;;5010644;28;19913;-69
2023/02/23 13:36:28;;;;;;;;;;;12.30;99.90;;;;;;5010588;28;20060;-69
2023/02/23 13:39:15;;;;;;;;;;;12.20;99.90;;;;;;5010411;28;19913;-69
2023/02/23 13:41:52;;;;;;;;;;;12.20;99.90;;;;;;5010554;28;19917;-69
2023/02/23 13:44:25;;;;;;;;;;;12.20;99.90;;;;;;5010255;28;19925;-69
2023/02/23 13:47:05;;;;;;;;;;;12.10;99.90;;;;;;5006825;28;19936;-69
2023/02/23 13:49:41;;;;;;;;;;;12.20;99.90;;;;;;5003199;28;20015;-68
2023/02/23 13:52:22;;;;;;;;;;;12.50;99.90;;;;;;5009477;28;19957;-69
2023/02/23 13:54:55;;;;;;;;;;;12.40;99.90;;;;;;5011494;28;19909;-69
2023/02/23 13:57:22;;;;;;;;;;;12.40;99.90;;;;;;5008805;28;19952;-68
2023/02/23 13:59:48;;;;;;;;;;;12.30;99.90;;;;;;5011723;28;20271;-69
2023/02/23 14:02:17;;;;;;;;;;;12.20;99.90;;;;;;5012292;28;19936;-69
2023/02/23 14:04:43;;;;;;;;;;;12.20;99.90;;;;;;5012621;28;20008;-68
2023/02/23 14:07:08;;;;;;;;;;;12.10;99.90;;;;;;5011783;28;20444;-69
2023/02/23 14:09:42;;;;;;;;;;;12.20;99.90;;;;;;5011913;28;20290;-69
2023/02/23 14:12:40;;;;;;;;;;;12.10;99.90;;;;;;5012677;28;20008;-69
2023/02/23 14:15:32;;;;;;;;;;;12.10;99.90;;;;;;5000644;28;19928;-69
2023/02/23 14:17:58;;;;;;;;;;;12.10;99.90;;;;;;4984593;28;19980;-68
2023/02/23 14:20:44;;;;;;;;;;;12.20;99.90;;;;;;4997268;28;20028;-69
2023/02/23 14:23:13;;;;;;;;;;;12.20;99.90;;;;;;5007781;28;19913;-68
2023/02/23 14:25:39;;;;;;;;;;;12.30;99.90;;;;;;5004178;28;19910;-68
2023/02/23 14:28:25;;;;;;;;;;;12.20;99.90;;;;;;5012605;28;20387;-69
2023/02/23 14:31:00;;;;;;;;;;;12.20;99.90;;;;;;5008418;28;20387;-69
2023/02/23 14:33:36;;;;;;;;;;;12.20;99.90;;;;;;5012522;28;19913;-69
2023/02/23 14:36:22;;;;;;;;;;;12.10;99.90;;;;;;5010920;28;20306;-69
2023/02/23 14:39:00;;;;;;;;;;;12.00;99.90;;;;;;4993436;28;19913;-70
2023/02/23 14:41:28;;;;;;;;;;;12.00;99.90;;;;;;5010334;28;19932;-69
2023/02/23 14:44:07;;;;;;;;;;;12.10;99.90;;;;;;5008306;28;19914;-69
2023/02/23 14:46:34;;;;;;;;;;;12.00;99.90;;;;;;5011006;28;19917;-68
2023/02/23 14:49:11;;;;;;;;;;;11.90;99.90;;;;;;5011062;28;19924;-68
2023/02/23 14:51:43;;;;;;;;;;;12.00;99.90;;;;;;5012620;28;19918;-68
2023/02/23 14:54:20;;;;;;;;;;;12.00;99.90;;;;;;5012247;28;19921;-68
2023/02/23 14:56:48;;;;;;;;;;;12.00;99.90;;;;;;5003038;28;19917;-69
2023/02/23 14:59:20;;;;;;;;;;;12.00;99.90;;;;;;5008091;28;19960;-69
2023/02/23 15:01:46;;;;;;;;;;;11.80;99.90;;;;;;5011664;28;19921;-69
2023/02/23 15:04:15;;;;;;;;;;;11.70;99.90;;;;;;5011002;28;20430;-68
2023/02/23 15:06:41;;;;;;;;;;;11.70;99.90;;;;;;5016323;28;19922;-68
2023/02/23 15:09:09;;;;;;;;;;;11.80;99.90;;;;;;5011621;28;20039;-68
2023/02/23 15:11:36;;;;;;;;;;;11.70;99.90;;;;;;5003252;28;20329;-69
2023/02/23 15:14:02;;;;;;;;;;;11.80;99.90;;;;;;5011037;28;19920;-68
2023/02/23 15:16:30;;;;;;;;;;;11.90;99.90;;;;;;5010611;28;19921;-68
2023/02/23 15:18:57;;;;;;;;;;;11.80;99.90;;;;;;5010581;28;19913;-67
2023/02/23 15:21:23;;;;;;;;;;;11.70;99.90;;;;;;5012676;28;20401;-68
2023/02/23 15:23:50;;;;;;;;;;;11.60;99.90;;;;;;5012562;28;19909;-68
2023/02/23 15:26:31;;;;;;;;;;;11.50;99.90;;;;;;5006471;28;19913;-69
2023/02/23 15:29:09;;;;;;;;;;;11.40;99.90;;;;;;5007187;28;19937;-70
2023/02/23 15:31:39;;;;;;;;;;;11.40;99.90;;;;;;5011939;28;19919;-71
2023/02/23 15:34:11;;;;;;;;;;;11.20;99.90;;;;;;5011717;28;19909;-70
2023/02/23 15:36:40;;;;;;;;;;;11.20;99.90;;;;;;5011826;28;19975;-69
2023/02/23 15:39:06;;;;;;;;;;;11.10;99.90;;;;;;5010422;28;19917;-70
2023/02/23 15:41:38;;;;;;;;;;;11.30;99.90;;;;;;5019072;28;19949;-68
2023/02/23 15:44:19;;;;;;;;;;;11.30;99.90;;;;;;5013282;28;20403;-70
2023/02/23 15:46:46;;;;;;;;;;;11.30;99.90;;;;;;5012587;28;19920;-69